Tyler, Alabama
Current Conditions -  °F | °C
As of 3:55 PM on Friday 31 Oct 2014 (Local Time) from KSEM Reporting Station
Broken Clouds Broken Clouds  
Wind Chill: 72°   Ceiling: 6500
Heat Index: 72°   Visibility: 10mi
Dew Point: 46°   Wind: 14mph
Humidity: 41%   Direction: 330°NNW
Pressure: 29.92"   Gusts: 20mph
Location:  32.34°N, 86.88°W
Report Text: KSEM 312055Z AUTO 33012G17KT 10SM SCT055 BKN065 BKN080 22/08 A2992 RMK AO2
Loading
Personal Weather Stations






























Interactive Weather Map
Tropical Storm Tracking
New forecast layout! Learn more

10-Day Weather Forecast

Advertisements
Track Severe Weather on mobile